Time;durP1;ratioP1;P1;durP2;ratioP2;P2;SDS_P1;SDS_P2;PMS_P1;PMS_P2;Temp;Humidity;BMP_temperature;BMP_pressure;BME280_temperature;BME280_humidity;BME280_pressure;Samples;Min_cycle;Max_cycle;Signal;HPM_P1;HPM_P2
2022/05/28 00:00:12;;;;;;;8.70;1.75;;;11.30;99.90;;;;;;4960038;28;20046;-54
2022/05/28 00:02:38;;;;;;;8.65;1.88;;;11.30;99.90;;;;;;4921530;28;20043;-56
2022/05/28 00:05:05;;;;;;;8.77;1.55;;;11.20;99.90;;;;;;4937053;28;20047;-55
2022/05/28 00:07:31;;;;;;;9.40;2.30;;;11.20;99.90;;;;;;4956590;28;20493;-54
2022/05/28 00:09:57;;;;;;;8.52;1.88;;;11.20;99.90;;;;;;4948916;28;20075;-54
2022/05/28 00:12:28;;;;;;;11.40;1.77;;;11.10;99.90;;;;;;4976887;28;20054;-55
2022/05/28 00:14:57;;;;;;;9.32;2.20;;;11.10;99.90;;;;;;4950540;28;20525;-56
2022/05/28 00:17:24;;;;;;;12.38;2.90;;;11.10;99.90;;;;;;4959960;28;22050;-56
2022/05/28 00:19:50;;;;;;;6.28;2.38;;;11.10;99.90;;;;;;4960961;28;20552;-56
2022/05/28 00:22:16;;;;;;;13.65;1.95;;;11.00;99.90;;;;;;4924102;28;20082;-52
2022/05/28 00:24:42;;;;;;;7.80;1.60;;;11.00;99.90;;;;;;4968062;28;20404;-51
2022/05/28 00:27:08;;;;;;;13.18;2.70;;;11.00;99.90;;;;;;4982781;28;20049;-54
2022/05/28 00:29:34;;;;;;;12.63;2.38;;;11.00;99.90;;;;;;4975795;28;20042;-54
2022/05/28 00:31:59;;;;;;;13.25;3.25;;;11.00;99.90;;;;;;4956366;28;20505;-54
2022/05/28 00:34:25;;;;;;;9.10;2.65;;;11.00;99.90;;;;;;4958927;28;20405;-54
2022/05/28 00:36:51;;;;;;;9.40;2.05;;;11.00;99.90;;;;;;4975538;28;20174;-56
2022/05/28 00:39:17;;;;;;;12.20;2.75;;;10.90;99.90;;;;;;4961636;28;20130;-55
2022/05/28 00:41:43;;;;;;;9.50;1.70;;;11.00;99.90;;;;;;4960919;28;20076;-54
2022/05/28 00:44:09;;;;;;;12.73;2.15;;;11.00;99.90;;;;;;4958246;28;20519;-55
2022/05/28 00:46:36;;;;;;;7.45;1.75;;;11.00;99.90;;;;;;4951417;28;20554;-53
2022/05/28 00:49:06;;;;;;;9.35;1.92;;;11.00;99.90;;;;;;4959547;28;20065;-54
2022/05/28 00:51:40;;;;;;;18.23;3.20;;;11.00;99.90;;;;;;4974362;28;20030;-55
2022/05/28 00:54:08;;;;;;;10.02;2.33;;;11.00;99.90;;;;;;4958229;28;20122;-55
2022/05/28 00:56:34;;;;;;;13.20;2.63;;;10.90;99.90;;;;;;4939127;28;20054;-54
2022/05/28 00:59:01;;;;;;;9.73;1.88;;;10.90;99.90;;;;;;4953092;28;20464;-55
2022/05/28 01:01:29;;;;;;;9.25;2.65;;;10.90;99.90;;;;;;4953787;28;20498;-53
2022/05/28 01:04:22;;;;;;;15.93;3.40;;;10.90;99.90;;;;;;4975043;28;20154;-52
2022/05/28 01:06:57;;;;;;;8.98;1.80;;;10.90;99.90;;;;;;4960051;28;20034;-52
2022/05/28 01:09:31;;;;;;;9.43;2.00;;;10.80;99.90;;;;;;4958811;28;20174;-53
2022/05/28 01:12:06;;;;;;;11.00;2.00;;;10.80;99.90;;;;;;4937553;28;20046;-55
2022/05/28 01:14:42;;;;;;;9.02;1.60;;;10.80;99.90;;;;;;4963335;28;20050;-54
2022/05/28 01:17:17;;;;;;;8.77;1.80;;;10.80;99.90;;;;;;4966800;28;20492;-55
2022/05/28 01:19:54;;;;;;;8.93;1.98;;;10.80;99.90;;;;;;4938910;28;20125;-53
2022/05/28 01:23:07;;;;;;;10.35;1.75;;;10.70;99.90;;;;;;4955104;28;20129;-54
2022/05/28 01:25:48;;;;;;;8.10;1.40;;;10.70;99.90;;;;;;4924179;28;20062;-54
2022/05/28 01:28:18;;;;;;;9.38;1.90;;;10.70;99.90;;;;;;4940973;28;20400;-51
2022/05/28 01:30:46;;;;;;;12.80;2.28;;;10.70;99.90;;;;;;4952133;28;20049;-54
2022/05/28 01:33:15;;;;;;;9.40;1.65;;;10.70;99.90;;;;;;4958205;28;20039;-53
2022/05/28 01:35:43;;;;;;;8.18;1.75;;;10.70;99.90;;;;;;4952105;28;20387;-53
2022/05/28 01:38:11;;;;;;;9.43;2.10;;;10.70;99.90;;;;;;4971536;28;20035;-54
2022/05/28 01:40:39;;;;;;;11.52;1.80;;;10.70;99.90;;;;;;4964293;28;20140;-55
2022/05/28 01:43:07;;;;;;;10.10;1.80;;;10.70;99.90;;;;;;4953605;28;20046;-54
2022/05/28 01:45:35;;;;;;;9.70;1.80;;;10.70;99.90;;;;;;4958091;28;21520;-54
2022/05/28 01:48:05;;;;;;;11.05;1.60;;;10.70;99.90;;;;;;4947486;28;20042;-53
2022/05/28 01:50:36;;;;;;;9.13;2.05;;;10.70;99.90;;;;;;4951421;28;20409;-55
2022/05/28 01:53:05;;;;;;;9.55;1.85;;;10.70;99.90;;;;;;4959090;28;20050;-54
2022/05/28 01:55:35;;;;;;;8.75;1.85;;;10.60;99.90;;;;;;4971150;28;20545;-55
2022/05/28 01:58:01;;;;;;;9.93;1.92;;;10.70;99.90;;;;;;4969734;28;20437;-55
2022/05/28 02:00:27;;;;;;;9.50;2.20;;;10.70;99.90;;;;;;4959735;28;20030;-55
2022/05/28 02:02:57;;;;;;;12.32;2.47;;;10.70;99.90;;;;;;4958289;28;20125;-55
2022/05/28 02:05:23;;;;;;;9.68;1.90;;;10.70;99.90;;;;;;4960774;28;20305;-55
2022/05/28 02:07:48;;;;;;;9.70;1.90;;;10.80;99.90;;;;;;4965360;28;20038;-54
2022/05/28 02:10:17;;;;;;;11.80;2.25;;;10.70;99.90;;;;;;4963001;28;20564;-53
2022/05/28 02:13:02;;;;;;;7.80;2.05;;;10.70;99.90;;;;;;4983540;28;20045;-51
2022/05/28 02:15:33;;;;;;;;;;;10.80;99.90;;;;;;4966709;28;20054;-53
2022/05/28 02:18:11;;;;;;;13.30;1.90;;;10.80;99.90;;;;;;4952562;28;19973;-54
2022/05/28 02:21:04;;;;;;;8.13;2.38;;;10.70;99.90;;;;;;4955913;28;20037;-51
2022/05/28 02:24:26;;;;;;;12.95;2.42;;;10.70;99.90;;;;;;4962712;28;20038;-51
2022/05/28 02:26:57;;;;;;;11.40;2.35;;;10.80;99.90;;;;;;4949871;28;20104;-54
2022/05/28 02:29:23;;;;;;;12.30;2.40;;;10.80;99.90;;;;;;4966369;28;20038;-53
2022/05/28 02:31:50;;;;;;;12.75;2.47;;;10.80;99.90;;;;;;4957783;28;20100;-54
2022/05/28 02:34:18;;;;;;;8.05;2.33;;;10.80;99.90;;;;;;4951322;28;20050;-56
2022/05/28 02:36:43;;;;;;;19.08;4.82;;;10.90;99.90;;;;;;4956001;28;20112;-55
2022/05/28 02:39:10;;;;;;;13.45;2.05;;;10.90;99.90;;;;;;4965883;28;20046;-54
2022/05/28 02:41:36;;;;;;;16.88;2.45;;;10.90;99.90;;;;;;4952466;28;20389;-54
2022/05/28 02:44:02;;;;;;;13.60;2.10;;;10.90;99.90;;;;;;4967314;28;20144;-56
2022/05/28 02:46:28;;;;;;;11.02;2.40;;;10.90;99.90;;;;;;4966496;28;20057;-55
2022/05/28 02:48:54;;;;;;;19.30;3.63;;;10.90;99.90;;;;;;4966706;28;20498;-55
2022/05/28 02:51:22;;;;;;;16.15;2.78;;;10.90;99.90;;;;;;4958124;28;20035;-53
2022/05/28 02:53:49;;;;;;;14.73;2.88;;;10.80;99.90;;;;;;4969999;28;20133;-56
2022/05/28 02:56:15;;;;;;;13.35;2.53;;;10.80;99.90;;;;;;4959015;28;20074;-57
2022/05/28 02:58:41;;;;;;;19.58;3.47;;;10.80;99.90;;;;;;4956893;28;20054;-55
2022/05/28 03:01:17;;;;;;;16.55;3.17;;;10.80;99.90;;;;;;4977808;28;20038;-55
2022/05/28 03:03:43;;;;;;;21.75;4.50;;;10.80;99.90;;;;;;4975060;28;20043;-54
2022/05/28 03:06:09;;;;;;;14.88;3.47;;;10.80;99.90;;;;;;4956194;28;20120;-56
2022/05/28 03:08:35;;;;;;;14.43;2.58;;;10.70;99.90;;;;;;4953323;28;21844;-55
2022/05/28 03:11:00;;;;;;;12.65;2.45;;;10.70;99.90;;;;;;4957743;28;20158;-55
2022/05/28 03:13:26;;;;;;;10.77;2.35;;;10.80;99.90;;;;;;4963260;28;20089;-54
2022/05/28 03:15:52;;;;;;;17.40;2.40;;;10.80;99.90;;;;;;4963937;28;20377;-55
2022/05/28 03:18:18;;;;;;;13.10;2.40;;;10.80;99.90;;;;;;4939666;28;20047;-55
2022/05/28 03:20:43;;;;;;;13.73;2.33;;;10.80;99.90;;;;;;4956280;28;20125;-55
2022/05/28 03:23:09;;;;;;;11.23;2.25;;;10.90;99.90;;;;;;4963615;28;20058;-55
2022/05/28 03:25:35;;;;;;;15.07;2.05;;;10.80;99.90;;;;;;4961546;28;21632;-55
2022/05/28 03:28:01;;;;;;;24.63;5.55;;;10.80;99.90;;;;;;4960544;28;20046;-52
2022/05/28 03:30:26;;;;;;;13.77;3.22;;;10.90;99.90;;;;;;4954485;28;20466;-55
2022/05/28 03:32:52;;;;;;;16.50;2.90;;;10.90;99.90;;;;;;4954460;28;20254;-54
2022/05/28 03:35:18;;;;;;;10.45;2.00;;;10.90;99.90;;;;;;4939799;28;20736;-55
2022/05/28 03:37:43;;;;;;;10.82;2.63;;;10.90;99.90;;;;;;4946336;28;20043;-54
2022/05/28 03:40:09;;;;;;;15.07;2.95;;;10.90;99.90;;;;;;4964244;28;20057;-54
2022/05/28 03:42:35;;;;;;;13.25;2.55;;;10.80;99.90;;;;;;4957872;28;20312;-56
2022/05/28 03:45:01;;;;;;;11.45;2.63;;;10.80;99.90;;;;;;4960482;28;20042;-54
2022/05/28 03:47:27;;;;;;;17.92;2.90;;;10.80;99.90;;;;;;4962216;28;20134;-55
2022/05/28 03:49:53;;;;;;;13.48;2.67;;;10.80;99.90;;;;;;4937632;28;20041;-53
2022/05/28 03:52:19;;;;;;;14.75;2.53;;;10.80;99.90;;;;;;4964546;28;20034;-55
2022/05/28 03:54:44;;;;;;;11.07;2.58;;;10.80;99.90;;;;;;4981798;28;20186;-56
2022/05/28 03:57:26;;;;;;;13.20;2.47;;;10.80;99.90;;;;;;4959482;28;20559;-55
2022/05/28 03:59:53;;;;;;;15.68;3.20;;;10.80;99.90;;;;;;4972523;28;20103;-55
2022/05/28 04:02:20;;;;;;;21.02;4.18;;;10.90;99.90;;;;;;4939235;28;20054;-55
2022/05/28 04:04:46;;;;;;;21.27;3.10;;;10.90;99.90;;;;;;4954259;28;20042;-51
2022/05/28 04:07:13;;;;;;;15.60;2.90;;;10.90;99.90;;;;;;4960670;28;20042;-54
2022/05/28 04:09:39;;;;;;;17.17;2.80;;;10.90;99.90;;;;;;4978568;28;20042;-55
2022/05/28 04:12:05;;;;;;;15.65;3.17;;;10.90;99.90;;;;;;4945180;28;20405;-55
2022/05/28 04:14:31;;;;;;;24.90;3.72;;;10.80;99.90;;;;;;4957061;28;20051;-55
2022/05/28 04:16:56;;;;;;;16.02;2.17;;;10.80;99.90;;;;;;4971583;28;20050;-55
2022/05/28 04:19:22;;;;;;;22.60;2.97;;;10.80;99.90;;;;;;4966676;28;20050;-55
2022/05/28 04:21:48;;;;;;;13.10;2.30;;;10.80;99.90;;;;;;4967706;28;20042;-56
2022/05/28 04:24:14;;;;;;;13.13;3.10;;;10.80;99.90;;;;;;4935900;28;20186;-56
2022/05/28 04:26:39;;;;;;;13.00;2.63;;;10.80;99.90;;;;;;4959993;28;20035;-52
2022/05/28 04:29:06;;;;;;;15.60;3.03;;;10.90;99.90;;;;;;4944260;28;20478;-55
2022/05/28 04:31:31;;;;;;;9.02;2.22;;;10.80;99.90;;;;;;4977770;23;20085;-57
2022/05/28 04:33:57;;;;;;;16.77;3.28;;;10.90;99.90;;;;;;4943368;28;20075;-59
2022/05/28 04:36:24;;;;;;;11.70;2.95;;;10.80;99.90;;;;;;4926613;29;20078;-61
2022/05/28 04:38:49;;;;;;;13.25;3.33;;;10.90;99.90;;;;;;4941822;29;20347;-59
2022/05/28 04:41:15;;;;;;;14.93;3.17;;;10.90;99.90;;;;;;4941438;28;20613;-61
2022/05/28 04:43:41;;;;;;;14.90;3.10;;;11.00;99.90;;;;;;4943783;28;20044;-59
2022/05/28 04:46:07;;;;;;;15.30;2.53;;;11.00;99.90;;;;;;4939663;29;20035;-59
2022/05/28 04:48:33;;;;;;;12.85;2.90;;;11.00;99.90;;;;;;4942678;29;20406;-57
2022/05/28 04:50:59;;;;;;;15.27;3.00;;;11.10;99.90;;;;;;4924997;29;20086;-58
2022/05/28 04:53:25;;;;;;;11.70;2.30;;;11.20;99.90;;;;;;4944116;28;20043;-57
2022/05/28 04:55:51;;;;;;;12.95;2.70;;;11.20;99.90;;;;;;4937265;29;20135;-57
2022/05/28 04:58:17;;;;;;;14.10;2.72;;;11.20;99.90;;;;;;4932428;29;20453;-60
2022/05/28 05:00:45;;;;;;;13.02;2.95;;;11.20;99.90;;;;;;4935790;28;20298;-57
2022/05/28 05:03:11;;;;;;;12.52;2.55;;;11.20;99.90;;;;;;4927628;28;20493;-56
2022/05/28 05:05:37;;;;;;;15.13;2.70;;;11.30;99.90;;;;;;4941444;29;20207;-56
2022/05/28 05:08:04;;;;;;;17.25;3.10;;;11.30;99.90;;;;;;4923963;28;20035;-59
2022/05/28 05:10:30;;;;;;;16.70;4.13;;;11.30;99.90;;;;;;4941346;29;20158;-59
2022/05/28 05:12:55;;;;;;;13.45;3.22;;;11.30;99.90;;;;;;4942443;28;20039;-59
2022/05/28 05:15:21;;;;;;;12.63;2.72;;;11.30;99.90;;;;;;4935306;28;20437;-60
2022/05/28 05:17:47;;;;;;;16.80;2.90;;;11.30;99.90;;;;;;4931213;28;20144;-59
2022/05/28 05:20:13;;;;;;;11.90;2.83;;;11.30;99.90;;;;;;4909316;29;20062;-58
2022/05/28 05:22:39;;;;;;;11.73;2.63;;;11.30;99.90;;;;;;4937793;28;20043;-56
2022/05/28 05:25:06;;;;;;;12.10;2.20;;;11.10;99.90;;;;;;4935286;28;20097;-57
2022/05/28 05:27:32;;;;;;;12.70;1.90;;;11.10;99.90;;;;;;4938382;28;20035;-56
2022/05/28 05:29:59;;;;;;;15.48;2.88;;;11.00;99.90;;;;;;4940738;29;20031;-60
2022/05/28 05:32:26;;;;;;;7.88;2.15;;;10.90;99.90;;;;;;4925480;28;20136;-59
2022/05/28 05:34:52;;;;;;;11.63;2.30;;;10.80;99.90;;;;;;4935627;28;20036;-59
2022/05/28 05:37:18;;;;;;;12.75;2.40;;;10.80;99.90;;;;;;4942012;29;20047;-57
2022/05/28 05:39:44;;;;;;;10.88;2.38;;;10.80;99.90;;;;;;4939002;28;20387;-58
2022/05/28 05:42:10;;;;;;;15.07;3.05;;;10.80;99.90;;;;;;4940709;28;20050;-60
2022/05/28 05:44:37;;;;;;;13.45;3.00;;;10.90;99.90;;;;;;4943168;29;20039;-56
2022/05/28 05:47:03;;;;;;;13.27;2.70;;;10.90;99.90;;;;;;4942567;28;20043;-59
2022/05/28 05:49:29;;;;;;;12.50;3.25;;;11.00;99.90;;;;;;4926874;29;20058;-58
2022/05/28 05:51:55;;;;;;;18.65;3.20;;;11.10;99.90;;;;;;4926407;28;20407;-60
2022/05/28 05:54:24;;;;;;;18.77;3.60;;;11.20;99.90;;;;;;4938874;29;20507;-58
2022/05/28 05:56:50;;;;;;;19.42;2.63;;;11.30;99.90;;;;;;4938355;28;20679;-61
2022/05/28 05:59:15;;;;;;;13.95;3.05;;;11.50;99.90;;;;;;4941720;29;20058;-55
2022/05/28 06:01:41;;;;;;;19.95;3.72;;;11.60;99.90;;;;;;4928646;29;20047;-56
2022/05/28 06:04:07;;;;;;;15.10;3.78;;;11.70;99.90;;;;;;4945915;29;20039;-59
2022/05/28 06:06:33;;;;;;;12.07;3.20;;;11.80;99.90;;;;;;4918831;29;20043;-61
2022/05/28 06:08:59;;;;;;;21.52;4.72;;;12.00;99.90;;;;;;4938615;28;20067;-59
2022/05/28 06:11:25;;;;;;;17.67;3.38;;;12.00;99.90;;;;;;4941643;28;20067;-60
2022/05/28 06:13:51;;;;;;;19.60;4.10;;;12.00;99.90;;;;;;4930603;29;20043;-60
2022/05/28 06:16:17;;;;;;;19.88;4.57;;;12.00;99.90;;;;;;4947039;29;20047;-61
2022/05/28 06:18:43;;;;;;;13.68;2.78;;;12.00;99.90;;;;;;4935627;28;20083;-61
2022/05/28 06:21:09;;;;;;;18.38;3.75;;;12.00;99.90;;;;;;4926606;29;20093;-62
2022/05/28 06:23:35;;;;;;;16.02;3.38;;;12.00;99.90;;;;;;4944724;28;20039;-62
2022/05/28 06:26:03;;;;;;;19.40;3.72;;;12.10;99.90;;;;;;4928133;28;20312;-61
2022/05/28 06:28:30;;;;;;;17.10;3.63;;;12.20;99.90;;;;;;4931652;28;20505;-61
2022/05/28 06:31:07;;;;;;;18.13;4.20;;;12.20;99.90;;;;;;4921964;29;20035;-61
2022/05/28 06:33:35;;;;;;;16.85;3.40;;;12.30;99.90;;;;;;4919908;29;20043;-59
2022/05/28 06:36:03;;;;;;;15.63;4.00;;;12.30;99.90;;;;;;4928543;28;20488;-60
2022/05/28 06:38:29;;;;;;;14.75;3.05;;;12.40;99.90;;;;;;4919403;28;20140;-57
2022/05/28 06:40:55;;;;;;;18.75;2.83;;;12.40;99.90;;;;;;4934278;29;20050;-61
2022/05/28 06:43:21;;;;;;;19.15;3.60;;;12.40;99.90;;;;;;4933047;28;23199;-61
2022/05/28 06:45:48;;;;;;;12.82;3.17;;;12.40;99.90;;;;;;4936196;28;20027;-58
2022/05/28 06:48:13;;;;;;;17.42;4.55;;;12.30;99.90;;;;;;4908971;29;20040;-62
2022/05/28 06:53:25;;;;;;;13.57;3.45;;;12.30;99.90;;;;;;4935569;28;20498;-60
2022/05/28 06:55:51;;;;;;;15.00;3.60;;;12.30;99.90;;;;;;4930329;28;20050;-60
2022/05/28 06:58:17;;;;;;;17.88;4.03;;;12.30;99.90;;;;;;4931989;28;20170;-59
2022/05/28 07:00:43;;;;;;;17.05;3.80;;;12.30;99.90;;;;;;4936216;28;20058;-62
2022/05/28 07:03:17;;;;;;;20.83;3.58;;;12.30;99.90;;;;;;4935009;28;20478;-62
2022/05/28 07:05:43;;;;;;;14.32;3.17;;;12.30;99.90;;;;;;4932782;28;20039;-62
2022/05/28 07:08:09;;;;;;;16.52;3.50;;;12.40;99.90;;;;;;4935504;29;20086;-61
2022/05/28 07:10:38;;;;;;;15.07;3.22;;;12.40;99.90;;;;;;4934606;29;20047;-59
2022/05/28 07:13:05;;;;;;;18.88;3.50;;;12.50;99.90;;;;;;4942124;29;20194;-59
2022/05/28 07:15:32;;;;;;;24.35;3.78;;;12.50;99.90;;;;;;4934258;29;20133;-61
2022/05/28 07:17:57;;;;;;;17.02;3.47;;;12.60;99.90;;;;;;4934700;28;20494;-59
2022/05/28 07:20:23;;;;;;;13.80;3.10;;;12.80;99.90;;;;;;4944486;29;20049;-61
2022/05/28 07:22:49;;;;;;;15.40;2.67;;;12.90;99.90;;;;;;4935894;28;20043;-61
2022/05/28 07:25:14;;;;;;;17.30;2.88;;;12.90;99.90;;;;;;4917310;29;20055;-60
2022/05/28 07:27:40;;;;;;;12.07;2.97;;;12.80;99.90;;;;;;4937107;29;20128;-62
2022/05/28 07:30:07;;;;;;;19.40;3.20;;;12.70;99.90;;;;;;4909949;29;20110;-59
2022/05/28 07:32:32;;;;;;;13.73;3.28;;;12.70;99.90;;;;;;4929878;28;20046;-60
2022/05/28 07:34:58;;;;;;;14.98;2.50;;;12.60;99.90;;;;;;4935624;28;20486;-61
2022/05/28 07:37:25;;;;;;;12.05;3.67;;;12.60;99.90;;;;;;4940710;28;20047;-61
2022/05/28 07:39:51;;;;;;;20.27;3.50;;;12.50;99.90;;;;;;4943721;29;20047;-57
2022/05/28 07:42:17;;;;;;;21.02;3.80;;;12.50;99.90;;;;;;4938821;28;20110;-61
2022/05/28 07:44:43;;;;;;;14.52;3.10;;;12.50;99.90;;;;;;4935202;28;20505;-62
2022/05/28 07:47:09;;;;;;;12.63;3.35;;;12.50;99.90;;;;;;4940577;29;20290;-59
2022/05/28 07:49:36;;;;;;;18.95;3.17;;;12.40;99.90;;;;;;4929135;29;20036;-60
2022/05/28 07:52:03;;;;;;;17.70;3.85;;;12.40;99.90;;;;;;4935037;28;20191;-61
2022/05/28 07:54:29;;;;;;;17.15;3.88;;;12.40;99.90;;;;;;4936632;29;20476;-62
2022/05/28 07:56:54;;;;;;;13.18;2.95;;;12.60;99.90;;;;;;4937346;28;20193;-60
2022/05/28 07:59:20;;;;;;;17.25;3.17;;;12.70;99.90;;;;;;4910864;29;20403;-57
2022/05/28 08:01:46;;;;;;;10.93;3.08;;;12.70;99.90;;;;;;4930739;28;20054;-55
2022/05/28 08:04:13;;;;;;;15.82;4.15;;;12.80;99.90;;;;;;4941730;28;20043;-56
2022/05/28 08:06:40;;;;;;;20.13;5.05;;;13.00;99.90;;;;;;4945957;29;20055;-60
2022/05/28 08:09:08;;;;;;;9.18;2.63;;;12.90;99.90;;;;;;4921275;29;20043;-61
2022/05/28 08:11:34;;;;;;;15.43;2.97;;;13.00;99.90;;;;;;4944788;29;20054;-58
2022/05/28 08:14:00;;;;;;;18.35;4.20;;;13.00;99.90;;;;;;4945209;28;20050;-61
2022/05/28 08:16:26;;;;;;;21.35;3.72;;;13.00;99.90;;;;;;4917173;28;20534;-58
2022/05/28 08:18:52;;;;;;;12.70;2.58;;;13.00;99.90;;;;;;4904228;29;20043;-60
2022/05/28 08:24:03;;;;;;;17.15;3.83;;;13.10;99.90;;;;;;4934838;29;20067;-58
2022/05/28 08:26:29;;;;;;;15.73;3.63;;;13.40;99.90;;;;;;4912353;29;22582;-57
2022/05/28 08:28:55;;;;;;;13.95;2.67;;;13.70;99.90;;;;;;4929426;28;20402;-58
2022/05/28 08:31:22;;;;;;;13.60;3.97;;;13.60;99.90;;;;;;4938158;29;20047;-58
2022/05/28 08:33:48;;;;;;;12.35;2.60;;;13.40;99.90;;;;;;4932504;28;20850;-58
2022/05/28 08:36:15;;;;;;;14.63;2.78;;;13.50;99.90;;;;;;4923068;29;20051;-56
2022/05/28 08:38:41;;;;;;;12.88;2.85;;;13.40;99.90;;;;;;4941250;28;20058;-58
2022/05/28 08:41:20;;;;;;;13.55;2.33;;;13.60;99.90;;;;;;4939645;28;20043;-58
2022/05/28 08:43:57;;;;;;;14.48;2.58;;;13.70;99.20;;;;;;4939569;29;20047;-57
2022/05/28 08:46:26;;;;;;;10.32;2.70;;;13.80;99.20;;;;;;4946095;29;20047;-58
2022/05/28 08:48:55;;;;;;;11.25;2.45;;;14.10;99.30;;;;;;4928612;29;20094;-56
2022/05/28 08:51:39;;;;;;;13.00;2.40;;;14.00;99.40;;;;;;4927104;29;20043;-56
2022/05/28 08:54:10;;;;;;;18.05;3.30;;;14.00;98.20;;;;;;4935625;29;20043;-54
2022/05/28 08:56:38;;;;;;;16.52;3.83;;;14.20;98.70;;;;;;4922393;29;20154;-58
2022/05/28 08:59:09;;;;;;;17.75;3.70;;;14.10;98.30;;;;;;4927436;29;20067;-58
2022/05/28 09:01:38;;;;;;;15.23;3.25;;;13.70;99.10;;;;;;4934931;29;20183;-56
2022/05/28 09:04:09;;;;;;;16.00;2.75;;;13.60;99.70;;;;;;4916635;29;20047;-58
2022/05/28 09:06:43;;;;;;;13.52;3.13;;;13.70;99.80;;;;;;4932619;29;20094;-56
2022/05/28 09:09:12;;;;;;;15.30;3.75;;;13.80;99.90;;;;;;4938416;28;20043;-59
2022/05/28 09:11:43;;;;;;;12.93;2.70;;;13.90;98.70;;;;;;4933915;28;20062;-58
2022/05/28 09:14:28;;;;;;;16.50;2.85;;;14.10;98.40;;;;;;4932806;28;20055;-60
2022/05/28 09:16:57;;;;;;;13.23;2.60;;;14.40;98.70;;;;;;4932726;28;20098;-56
2022/05/28 09:19:35;;;;;;;10.70;2.30;;;14.30;97.90;;;;;;4915404;29;20491;-56
2022/05/28 09:22:01;;;;;;;13.43;3.15;;;14.50;97.60;;;;;;4935194;28;20513;-60
2022/05/28 09:24:29;;;;;;;16.50;3.10;;;14.50;97.90;;;;;;4943912;29;20047;-57
2022/05/28 09:27:06;;;;;;;16.20;2.50;;;14.30;96.80;;;;;;4927253;29;20035;-56
2022/05/28 09:29:53;;;;;;;13.80;2.95;;;14.20;97.90;;;;;;4916953;28;20036;-57
2022/05/28 09:32:51;;;;;;;9.90;2.47;;;14.10;98.10;;;;;;4936362;28;20063;-55
2022/05/28 09:35:45;;;;;;;17.55;2.97;;;14.00;98.50;;;;;;4903505;28;20067;-59
2022/05/28 09:38:27;;;;;;;15.32;3.10;;;14.10;99.20;;;;;;4930079;28;20071;-59
2022/05/28 09:41:27;;;;;;;15.05;2.95;;;14.30;99.00;;;;;;4928926;28;20410;-58
2022/05/28 09:44:01;;;;;;;13.13;2.67;;;14.30;98.90;;;;;;4924037;29;20130;-58
2022/05/28 09:46:31;;;;;;;17.88;3.00;;;14.20;99.10;;;;;;4926002;29;20047;-58
2022/05/28 09:49:20;;;;;;;15.23;3.20;;;13.90;99.30;;;;;;4941555;28;20114;-58
2022/05/28 09:51:56;;;;;;;20.75;4.10;;;13.90;99.60;;;;;;4925735;28;20043;-59
2022/05/28 09:54:25;;;;;;;8.35;2.75;;;14.00;99.70;;;;;;4927619;29;20047;-58
2022/05/28 09:57:11;;;;;;;15.00;2.92;;;14.00;98.70;;;;;;4927716;29;20418;-58
2022/05/28 09:59:42;;;;;;;16.60;3.63;;;14.00;97.90;;;;;;4928186;28;20036;-58
2022/05/28 10:02:22;;;;;;;11.73;2.10;;;14.10;98.00;;;;;;4929887;28;20040;-58
2022/05/28 10:05:11;;;;;;;14.85;2.85;;;14.20;98.40;;;;;;4928820;29;20065;-58
2022/05/28 10:07:55;;;;;;;14.60;3.15;;;14.10;98.50;;;;;;4928043;28;20588;-59
2022/05/28 10:10:26;;;;;;;17.08;3.83;;;13.90;98.40;;;;;;4929040;28;20039;-58
2022/05/28 10:12:52;;;;;;;14.88;2.70;;;13.70;98.40;;;;;;4930410;28;20050;-58
2022/05/28 10:15:24;;;;;;;17.20;4.05;;;13.50;99.20;;;;;;4930078;29;20047;-57
2022/05/28 10:17:56;;;;;;;15.98;3.45;;;13.30;99.60;;;;;;4930676;29;20054;-58
2022/05/28 10:20:21;;;;;;;18.45;4.45;;;13.30;99.90;;;;;;4934572;28;20050;-57
2022/05/28 10:22:51;;;;;;;15.48;4.43;;;13.30;99.90;;;;;;4920270;29;20039;-58
2022/05/28 10:25:46;;;;;;;19.80;2.78;;;13.30;99.90;;;;;;4931911;28;20039;-57
2022/05/28 10:28:13;;;;;;;21.50;3.85;;;13.40;99.90;;;;;;4941282;29;20475;-57
2022/05/28 10:30:43;;;;;;;14.52;2.75;;;13.50;99.90;;;;;;4976398;23;20047;-82
2022/05/28 10:33:16;;;;;;;14.60;3.85;;;13.50;99.90;;;;;;4985480;28;20048;-87
2022/05/28 10:35:42;;;;;;;12.55;3.22;;;13.50;99.90;;;;;;5000321;28;20044;-87
2022/05/28 10:38:11;;;;;;;12.45;2.70;;;13.60;99.90;;;;;;4982688;28;20038;-87
2022/05/28 10:40:57;;;;;;;12.15;2.75;;;13.70;99.70;;;;;;4993208;28;20038;-88
2022/05/28 10:43:30;;;;;;;16.52;3.00;;;13.90;99.50;;;;;;4988158;28;20043;-87
2022/05/28 10:46:24;;;;;;;15.63;3.05;;;14.10;99.90;;;;;;4988317;28;20121;-88
2022/05/28 10:49:15;;;;;;;18.23;3.95;;;14.20;98.70;;;;;;4986724;28;20046;-88
2022/05/28 10:52:15;;;;;;;23.02;3.47;;;14.10;97.70;;;;;;4980855;23;20168;-55
2022/05/28 10:54:57;;;;;;;10.57;2.15;;;14.00;97.30;;;;;;4978916;28;20295;-51
2022/05/28 10:57:41;;;;;;;12.07;2.78;;;14.00;97.90;;;;;;4971258;28;20703;-54
2022/05/28 11:00:13;;;;;;;17.63;3.38;;;13.90;98.80;;;;;;4970247;28;20046;-52
2022/05/28 11:03:13;;;;;;;14.60;3.42;;;13.80;99.70;;;;;;4964118;28;20047;-54
2022/05/28 11:06:02;;;;;;;19.38;2.97;;;13.60;99.90;;;;;;4949465;28;20145;-55
2022/05/28 11:08:50;;;;;;;17.92;3.40;;;13.50;99.90;;;;;;4947448;28;20095;-55
2022/05/28 11:11:31;;;;;;;23.00;4.05;;;13.40;99.90;;;;;;4926227;28;20047;-53
2022/05/28 11:14:25;;;;;;;15.18;3.20;;;13.40;99.90;;;;;;4946094;28;20568;-54
2022/05/28 11:16:52;;;;;;;;;;;13.30;99.90;;;;;;4941687;28;20301;-53
2022/05/28 11:19:55;;;;;;;14.02;4.20;;;13.20;99.60;;;;;;4924250;28;19964;-56
2022/05/28 11:22:30;;;;;;;11.32;1.60;;;13.10;99.20;;;;;;4945917;28;20138;-55
2022/05/28 11:25:04;;;;;;;11.07;2.40;;;13.10;99.90;;;;;;4946431;28;20042;-54
2022/05/28 11:27:51;;;;;;;11.38;2.88;;;13.40;99.90;;;;;;4946140;28;20138;-53
2022/05/28 11:30:38;;;;;;;8.25;2.30;;;13.90;99.30;;;;;;4941843;28;20043;-52
2022/05/28 11:33:19;;;;;;;10.60;2.00;;;14.30;99.40;;;;;;4937707;28;20039;-52
2022/05/28 11:35:54;;;;;;;10.85;2.40;;;14.70;98.20;;;;;;4946211;28;20039;-54
2022/05/28 11:38:26;;;;;;;9.55;2.33;;;14.60;97.10;;;;;;4950787;28;20046;-55
2022/05/28 11:41:14;;;;;;;11.05;2.38;;;14.70;96.60;;;;;;4932265;28;20545;-55
2022/05/28 11:44:02;;;;;;;10.35;2.15;;;14.60;96.50;;;;;;4937676;28;20057;-55
2022/05/28 11:46:30;;;;;;;14.13;2.33;;;15.00;96.30;;;;;;4939400;28;20510;-56
2022/05/28 11:52:22;;;;;;;10.27;2.15;;;15.60;95.10;;;;;;4942993;28;20042;-56
2022/05/28 11:55:07;;;;;;;17.15;3.75;;;15.50;94.30;;;;;;4941630;28;20051;-55
2022/05/28 11:57:41;;;;;;;;;;;15.70;95.20;;;;;;4929990;28;20137;-54
2022/05/28 12:00:09;;;;;;;12.02;2.72;;;15.50;94.30;;;;;;4933140;28;19933;-57
2022/05/28 12:03:08;;;;;;;13.88;2.38;;;15.10;94.20;;;;;;4920365;28;20054;-54
2022/05/28 12:06:03;;;;;;;11.85;3.13;;;15.00;95.90;;;;;;4918915;28;20564;-57
2022/05/28 12:08:35;;;;;;;16.67;2.72;;;14.80;96.00;;;;;;4950328;28;20905;-56
2022/05/28 12:11:05;;;;;;;8.73;2.53;;;14.60;95.80;;;;;;4938405;28;20408;-56
2022/05/28 12:13:40;;;;;;;9.27;2.63;;;14.50;95.90;;;;;;4950092;28;20050;-53
2022/05/28 12:16:25;;;;;;;10.48;2.33;;;15.00;96.10;;;;;;4922513;28;20046;-56
2022/05/28 12:18:59;;;;;;;9.00;2.88;;;15.40;94.60;;;;;;4953231;28;20053;-54
2022/05/28 12:21:32;;;;;;;8.90;1.83;;;15.40;91.90;;;;;;4951067;28;20058;-56
2022/05/28 12:24:11;;;;;;;10.10;2.45;;;15.60;91.60;;;;;;4946148;28;20050;-54
2022/05/28 12:27:07;;;;;;;8.93;2.10;;;15.70;90.70;;;;;;4959161;28;20050;-56
2022/05/28 12:29:43;;;;;;;8.27;1.60;;;15.80;91.10;;;;;;4960078;28;20642;-55
2022/05/28 12:32:14;;;;;;;9.82;2.10;;;15.70;87.70;;;;;;4969928;28;20035;-56
2022/05/28 12:35:02;;;;;;;9.85;2.92;;;15.60;87.40;;;;;;4960002;28;20096;-53
2022/05/28 12:37:48;;;;;;;8.10;2.15;;;15.70;90.00;;;;;;4964572;28;20489;-54
2022/05/28 12:40:22;;;;;;;7.60;1.90;;;16.20;91.40;;;;;;4920850;28;20146;-56
2022/05/28 12:42:48;;;;;;;8.40;2.00;;;16.20;88.50;;;;;;4948760;28;20050;-55
2022/05/28 12:45:39;;;;;;;8.63;3.10;;;16.30;89.10;;;;;;4946363;28;20564;-54
2022/05/28 12:48:33;;;;;;;14.07;2.80;;;16.20;87.70;;;;;;4943710;28;20047;-53
2022/05/28 12:51:25;;;;;;;;;;;16.20;88.70;;;;;;4953295;28;20505;-55
2022/05/28 12:53:57;;;;;;;11.13;1.92;;;16.10;84.70;;;;;;4944643;28;19922;-56
2022/05/28 12:56:28;;;;;;;8.57;1.98;;;15.70;88.40;;;;;;4964006;28;20038;-56
2022/05/28 12:59:12;;;;;;;11.40;2.13;;;15.90;90.60;;;;;;4932811;28;20566;-56
2022/05/28 13:01:47;;;;;;;12.10;1.90;;;16.30;90.70;;;;;;4909821;28;20190;-56
2022/05/28 13:04:17;;;;;;;9.80;2.10;;;16.40;90.40;;;;;;4940661;28;20502;-54
2022/05/28 13:06:53;;;;;;;11.98;2.55;;;16.20;89.20;;;;;;4927663;28;20053;-56
2022/05/28 13:09:27;;;;;;;16.65;2.53;;;15.60;90.20;;;;;;4943023;28;20034;-56